메인 페이지
METAR-TAF:

METAR-TAF

공항 :

대구국제공항

대구광역, 대한민국

위도: 35-54N, 경도: 128-39E, 고도: 35m

현재 날씨관측

예보는 57분 전, 16:00시(UTC)에 발표되었습니다.
남동2kt
온도 8°C
습도 93%
기압 1025 hPa
시정 10km 이상
1500m 미만 상공 구름 및 적란운 없음

METAR: RKTN 191600Z 13002KT CAVOK 08/07 Q1025 NOSIG

시각: 01:57 (16:57 UTC)

예보

예보는 5 시간 57분 전, 11:00시(UTC)에 발표되었습니다.
예보 대상 시간: 19일 12시부터 20일 18시까지 (UTC)
남동6kt
시정 10km 이상
고도 5000ft 상공 구름 보통

TAF: RKTN 191100Z 1912/2018 13006KT 9999 SCT050 TN08/1921Z TX22/2006Z

4,000개 이상의 공항 관측 자료 및 예보 (METAR 및 TAF 보고).

지도상에서 검색 가능한 기상관측소가 노란 점과 빨간 점으로 표시되어 있습니다.

기상관측소 명을 보려면 표시 위로 마우스를 이동하세요.

날씨 관측과 예보를 보려면 클릭하세요.

지도 변경 : 확대하려면 엑스 표시가 있는 녹색 버튼, 축소하려면 빼기 표시가 있는 녹색 버튼, 다음 페이지의 지도를 보려면 녹색 화살표를 클릭하세요.


METAR-TAF: